Time;durP1;ratioP1;P1;durP2;ratioP2;P2;SDS_P1;SDS_P2;PMS_P1;PMS_P2;Temp;Humidity;BMP_temperature;BMP_pressure;BME280_temperature;BME280_humidity;BME280_pressure;Samples;Min_cycle;Max_cycle;Signal;HPM_P1;HPM_P2
2023/12/15 00:00:27;;;;;;;5.13;1.50;;;3.70;99.90;;;;;;4897992;29;20045;-66
2023/12/15 00:02:56;;;;;;;2.60;1.42;;;3.70;99.90;;;;;;4885304;29;20128;-66
2023/12/15 00:05:23;;;;;;;1.98;1.10;;;3.60;99.90;;;;;;4893642;29;20560;-66
2023/12/15 00:07:50;;;;;;;3.45;1.50;;;3.50;99.90;;;;;;4901399;29;20047;-66
2023/12/15 00:10:17;;;;;;;1.90;1.20;;;3.60;99.90;;;;;;4892067;29;20443;-66
2023/12/15 00:12:44;;;;;;;1.70;1.30;;;3.60;99.90;;;;;;4892368;29;20051;-65
2023/12/15 00:15:10;;;;;;;3.08;1.60;;;3.50;99.90;;;;;;4888341;29;20491;-66
2023/12/15 00:17:37;;;;;;;2.85;1.38;;;3.50;99.90;;;;;;4891532;29;20040;-65
2023/12/15 00:20:08;;;;;;;3.08;1.25;;;3.50;99.90;;;;;;4895290;29;20127;-65
2023/12/15 00:22:35;;;;;;;2.90;1.30;;;3.50;99.90;;;;;;4897071;29;20075;-66
2023/12/15 00:25:02;;;;;;;2.78;1.48;;;3.50;99.90;;;;;;4892733;29;20405;-65
2023/12/15 00:27:29;;;;;;;2.70;0.90;;;3.50;99.90;;;;;;4891390;29;20438;-66
2023/12/15 00:29:56;;;;;;;3.30;1.70;;;3.50;99.90;;;;;;4893237;29;20471;-66
2023/12/15 00:32:23;;;;;;;2.13;1.05;;;3.50;99.90;;;;;;4889540;29;20047;-65
2023/12/15 00:34:52;;;;;;;3.42;1.20;;;3.50;99.90;;;;;;4898375;29;20047;-65
2023/12/15 00:37:20;;;;;;;3.00;1.30;;;3.50;99.90;;;;;;4892697;29;20076;-66
2023/12/15 00:39:47;;;;;;;3.08;1.25;;;3.60;99.90;;;;;;4896298;29;20043;-66
2023/12/15 00:42:15;;;;;;;2.53;1.35;;;3.50;99.90;;;;;;4891617;29;20468;-65
2023/12/15 00:44:41;;;;;;;3.40;1.55;;;3.50;99.90;;;;;;4895804;29;20084;-65
2023/12/15 00:47:08;;;;;;;3.17;1.33;;;3.50;99.90;;;;;;4894730;29;20509;-66
2023/12/15 00:49:35;;;;;;;3.88;1.17;;;3.50;99.90;;;;;;4895352;29;20441;-65
2023/12/15 00:52:02;;;;;;;2.55;1.33;;;3.40;99.90;;;;;;4896048;29;20041;-65
2023/12/15 00:54:29;;;;;;;1.63;1.00;;;3.30;99.90;;;;;;4895794;29;20051;-66
2023/12/15 00:56:56;;;;;;;4.63;1.23;;;3.30;99.90;;;;;;4892161;29;20033;-65
2023/12/15 00:59:22;;;;;;;1.95;1.15;;;3.20;99.90;;;;;;4895934;29;20059;-65
2023/12/15 01:01:49;;;;;;;2.35;1.02;;;3.20;99.90;;;;;;4896347;29;20044;-66
2023/12/15 01:04:16;;;;;;;2.03;0.75;;;3.20;99.90;;;;;;4895656;29;20044;-65
2023/12/15 01:06:43;;;;;;;3.58;1.15;;;3.20;99.90;;;;;;4890404;29;20041;-65
2023/12/15 01:09:10;;;;;;;2.08;1.20;;;3.20;99.90;;;;;;4894043;29;20041;-65
2023/12/15 01:11:36;;;;;;;1.65;0.90;;;3.10;99.90;;;;;;4890583;29;20044;-66
2023/12/15 01:14:03;;;;;;;2.78;1.15;;;3.20;99.90;;;;;;4895201;29;20045;-65
2023/12/15 01:16:30;;;;;;;2.85;0.95;;;3.20;99.90;;;;;;4898059;29;20051;-66
2023/12/15 01:18:57;;;;;;;2.55;1.10;;;3.10;99.90;;;;;;4892628;29;20076;-65
2023/12/15 01:21:24;;;;;;;1.98;1.05;;;3.10;99.90;;;;;;4895310;29;20549;-65
2023/12/15 01:23:50;;;;;;;2.40;1.30;;;3.10;99.90;;;;;;4895816;29;20066;-66
2023/12/15 01:26:18;;;;;;;1.20;0.70;;;3.10;99.90;;;;;;4894451;29;20037;-66
2023/12/15 01:28:45;;;;;;;1.77;1.08;;;3.10;99.90;;;;;;4896242;29;20037;-65
2023/12/15 01:31:13;;;;;;;3.10;0.77;;;3.00;99.90;;;;;;4890132;29;20394;-65
2023/12/15 01:33:40;;;;;;;1.38;0.90;;;3.00;99.90;;;;;;4895955;29;20049;-65
2023/12/15 01:36:08;;;;;;;2.60;0.95;;;3.00;99.90;;;;;;4890893;29;20049;-66
2023/12/15 01:38:34;;;;;;;;;;;3.00;99.90;;;;;;4896368;29;20040;-65
2023/12/15 01:41:01;;;;;;;1.50;1.00;;;3.10;99.90;;;;;;4894931;29;19930;-65
2023/12/15 01:43:28;;;;;;;1.80;1.02;;;3.10;99.90;;;;;;4890739;29;20092;-65
2023/12/15 01:45:55;;;;;;;1.35;0.77;;;3.10;99.90;;;;;;4892863;29;20048;-66
2023/12/15 01:48:35;;;;;;;1.58;0.85;;;3.20;99.90;;;;;;4887548;29;20040;-65
2023/12/15 01:51:02;;;;;;;;;;;3.10;99.90;;;;;;4896121;29;20486;-65
2023/12/15 01:53:31;;;;;;;5.03;0.88;;;3.00;99.90;;;;;;4895245;29;19934;-65
2023/12/15 01:55:58;;;;;;;2.03;0.82;;;3.00;99.90;;;;;;4895462;29;20049;-65
2023/12/15 01:58:25;;;;;;;1.60;1.10;;;3.10;99.90;;;;;;4887508;29;20045;-65
2023/12/15 02:00:52;;;;;;;2.03;1.00;;;3.10;99.90;;;;;;4895549;29;20045;-66
2023/12/15 02:03:19;;;;;;;10.43;2.08;;;3.20;99.90;;;;;;4888690;29;20120;-66
2023/12/15 02:05:46;;;;;;;1.25;0.88;;;3.20;99.90;;;;;;4895498;29;20553;-66
2023/12/15 02:08:12;;;;;;;1.42;1.08;;;3.30;99.90;;;;;;4894598;29;20517;-65
2023/12/15 02:10:39;;;;;;;1.80;0.85;;;3.30;99.90;;;;;;4896131;29;20116;-65
2023/12/15 02:13:06;;;;;;;0.70;0.60;;;3.20;99.90;;;;;;4887698;29;20067;-65
2023/12/15 02:15:33;;;;;;;3.40;0.93;;;3.10;99.90;;;;;;4893654;29;20508;-65
2023/12/15 02:18:00;;;;;;;1.23;0.60;;;3.00;99.90;;;;;;4892607;29;20083;-65
2023/12/15 02:20:28;;;;;;;1.80;1.15;;;2.90;99.90;;;;;;4899468;29;20513;-65
2023/12/15 02:22:57;;;;;;;2.13;1.20;;;2.90;99.90;;;;;;4899085;29;20115;-65
2023/12/15 02:25:24;;;;;;;2.83;1.02;;;2.90;99.90;;;;;;4891068;29;20033;-65
2023/12/15 02:27:51;;;;;;;2.83;0.90;;;3.00;99.90;;;;;;4880999;29;20118;-65
2023/12/15 02:30:18;;;;;;;1.70;0.82;;;2.70;99.90;;;;;;4897172;29;20045;-65
2023/12/15 02:32:45;;;;;;;1.48;0.90;;;2.70;99.90;;;;;;4898358;29;20120;-65
2023/12/15 02:35:14;;;;;;;;;;;2.70;99.90;;;;;;4890346;29;20106;-65
2023/12/15 02:37:41;;;;;;;;;;;2.70;99.90;;;;;;4896846;29;19930;-65
2023/12/15 02:40:08;;;;;;;1.63;0.80;;;2.70;99.90;;;;;;4897878;29;19924;-65
2023/12/15 02:42:34;;;;;;;3.10;1.08;;;2.60;99.90;;;;;;4897650;29;20049;-65
2023/12/15 02:45:01;;;;;;;2.15;1.00;;;2.50;99.90;;;;;;4887838;29;20132;-65
2023/12/15 02:47:28;;;;;;;1.27;0.93;;;2.60;99.90;;;;;;4898481;29;20123;-65
2023/12/15 02:49:55;;;;;;;;;;;2.60;99.90;;;;;;4899765;29;20508;-65
2023/12/15 02:52:22;;;;;;;2.80;0.85;;;2.60;99.90;;;;;;4897532;29;19923;-65
2023/12/15 02:54:49;;;;;;;1.08;0.63;;;2.50;99.90;;;;;;4898523;29;20459;-65
2023/12/15 02:57:16;;;;;;;0.80;0.60;;;2.50;99.90;;;;;;4898703;29;20053;-65
2023/12/15 02:59:43;;;;;;;0.75;0.55;;;2.50;99.90;;;;;;4894500;29;20048;-65
2023/12/15 03:02:09;;;;;;;1.85;0.90;;;2.50;99.90;;;;;;4898546;29;20063;-66
2023/12/15 03:04:36;;;;;;;1.65;0.90;;;2.50;99.90;;;;;;4897157;29;20087;-65
2023/12/15 03:07:03;;;;;;;2.08;0.57;;;2.40;99.90;;;;;;4898825;29;20051;-66
2023/12/15 03:09:30;;;;;;;0.65;0.50;;;2.40;99.90;;;;;;4897149;29;20044;-65
2023/12/15 03:11:57;;;;;;;1.92;0.80;;;2.50;99.90;;;;;;4896398;29;20032;-65
2023/12/15 03:14:23;;;;;;;2.13;0.80;;;2.50;99.90;;;;;;4896830;29;20045;-65
2023/12/15 03:16:50;;;;;;;1.55;0.70;;;2.50;99.90;;;;;;4898186;29;20041;-65
2023/12/15 03:19:17;;;;;;;1.77;0.90;;;2.50;99.90;;;;;;4898256;29;20052;-65
2023/12/15 03:21:44;;;;;;;1.02;0.70;;;2.50;99.90;;;;;;4889734;29;20044;-65
2023/12/15 03:24:10;;;;;;;1.67;1.10;;;2.50;99.90;;;;;;4897711;29;20140;-65
2023/12/15 03:26:37;;;;;;;1.25;0.73;;;2.60;99.90;;;;;;4897626;29;20407;-65
2023/12/15 03:29:04;;;;;;;1.92;1.10;;;2.60;99.90;;;;;;4893230;29;20073;-65
2023/12/15 03:31:31;;;;;;;1.85;0.85;;;2.60;99.90;;;;;;4887130;29;20494;-65
2023/12/15 03:33:58;;;;;;;1.48;0.80;;;2.60;99.90;;;;;;4897221;29;20415;-65
2023/12/15 03:36:24;;;;;;;2.65;1.30;;;2.60;99.90;;;;;;4897173;29;20045;-66
2023/12/15 03:38:51;;;;;;;1.92;1.20;;;2.60;99.90;;;;;;4893137;29;20041;-65
2023/12/15 03:41:18;;;;;;;3.60;1.10;;;2.50;99.90;;;;;;4880828;29;20057;-66
2023/12/15 03:43:45;;;;;;;2.80;1.88;;;2.40;99.90;;;;;;4890861;29;20044;-65
2023/12/15 03:46:12;;;;;;;1.88;1.20;;;2.40;99.90;;;;;;4891908;29;20049;-65
2023/12/15 03:48:39;;;;;;;5.03;1.80;;;2.50;99.90;;;;;;4897449;29;20549;-66
2023/12/15 03:51:06;;;;;;;1.52;1.17;;;2.50;99.90;;;;;;4889746;29;20052;-65
2023/12/15 03:53:32;;;;;;;1.15;1.00;;;2.60;99.90;;;;;;4897014;29;20051;-65
2023/12/15 03:55:59;;;;;;;1.95;1.13;;;2.70;99.90;;;;;;4893446;29;20521;-66
2023/12/15 03:58:26;;;;;;;2.67;1.50;;;2.80;99.90;;;;;;4896388;29;20072;-66
2023/12/15 04:00:53;;;;;;;2.17;1.40;;;2.80;99.90;;;;;;4896693;29;20048;-66
2023/12/15 04:03:20;;;;;;;2.00;1.13;;;2.90;99.90;;;;;;4897333;29;20055;-65
2023/12/15 04:05:47;;;;;;;3.80;1.23;;;2.90;99.90;;;;;;4889327;29;20040;-65
2023/12/15 04:08:14;;;;;;;3.28;1.95;;;2.90;99.90;;;;;;4897560;29;20379;-66
2023/12/15 04:10:40;;;;;;;3.15;2.00;;;2.90;99.90;;;;;;4897266;29;20490;-66
2023/12/15 04:13:07;;;;;;;3.35;1.95;;;3.00;99.90;;;;;;4895291;29;20033;-65
2023/12/15 04:15:34;;;;;;;3.72;2.20;;;3.00;99.90;;;;;;4895303;29;20115;-65
2023/12/15 04:18:06;;;;;;;4.68;2.15;;;3.10;99.90;;;;;;4892650;29;20040;-65
2023/12/15 04:20:33;;;;;;;6.38;2.22;;;3.10;99.90;;;;;;4897233;29;20124;-65
2023/12/15 04:23:00;;;;;;;4.05;2.00;;;3.10;99.90;;;;;;4892324;29;20036;-65
2023/12/15 04:25:27;;;;;;;2.53;1.67;;;3.10;99.90;;;;;;4897213;29;20056;-65
2023/12/15 04:27:54;;;;;;;4.97;2.17;;;3.10;99.90;;;;;;4896240;29;20513;-65
2023/12/15 04:30:21;;;;;;;4.00;2.40;;;3.10;99.90;;;;;;4893692;29;20525;-65
2023/12/15 04:32:48;;;;;;;2.22;1.70;;;3.10;99.90;;;;;;4897208;29;20071;-65
2023/12/15 04:35:14;;;;;;;3.20;1.80;;;3.10;99.90;;;;;;4894872;29;20076;-65
2023/12/15 04:37:44;;;;;;;5.22;2.38;;;3.20;99.90;;;;;;4895139;29;20545;-66
2023/12/15 04:40:15;;;;;;;6.55;3.38;;;3.20;99.90;;;;;;4893203;29;20049;-65
2023/12/15 04:42:41;;;;;;;5.38;2.95;;;3.30;99.90;;;;;;4892194;29;20044;-66
2023/12/15 04:45:09;;;;;;;6.10;3.25;;;3.30;99.90;;;;;;4889998;29;20041;-66
2023/12/15 04:47:36;;;;;;;7.47;3.40;;;3.20;99.90;;;;;;4895060;29;20047;-65
2023/12/15 04:50:04;;;;;;;5.30;3.05;;;3.30;99.90;;;;;;4899325;29;20048;-65
2023/12/15 04:52:31;;;;;;;6.05;3.42;;;3.20;99.90;;;;;;4895289;29;20063;-65
2023/12/15 04:54:58;;;;;;;3.83;2.42;;;3.20;99.90;;;;;;4895208;29;20478;-65
2023/12/15 04:57:24;;;;;;;6.22;3.42;;;3.20;99.90;;;;;;4894188;29;20055;-66
2023/12/15 04:59:51;;;;;;;5.18;2.42;;;3.20;99.90;;;;;;4898005;29;20057;-65
2023/12/15 05:02:18;;;;;;;7.63;3.45;;;3.20;99.90;;;;;;4895672;29;20077;-66
2023/12/15 05:04:45;;;;;;;6.35;3.38;;;3.20;99.90;;;;;;4895964;29;20041;-65
2023/12/15 05:07:12;;;;;;;5.05;3.08;;;3.20;99.90;;;;;;4894856;29;20039;-65
2023/12/15 05:09:39;;;;;;;7.32;3.30;;;3.20;99.90;;;;;;4896247;29;20040;-65
2023/12/15 05:12:08;;;;;;;6.53;3.30;;;3.20;99.90;;;;;;4892133;29;20498;-65
2023/12/15 05:14:36;;;;;;;5.55;3.42;;;3.30;99.90;;;;;;4891651;29;20040;-65
2023/12/15 05:17:03;;;;;;;7.43;3.78;;;3.30;99.90;;;;;;4894164;29;20048;-65
2023/12/15 05:19:30;;;;;;;5.45;3.58;;;3.20;99.90;;;;;;4895837;29;20048;-65
2023/12/15 05:21:57;;;;;;;5.45;3.42;;;3.20;99.90;;;;;;4882538;29;20120;-65
2023/12/15 05:24:23;;;;;;;7.85;4.63;;;3.30;99.90;;;;;;4883114;29;20057;-65
2023/12/15 05:26:50;;;;;;;11.40;4.88;;;3.20;99.90;;;;;;4890164;29;20131;-65
2023/12/15 05:29:17;;;;;;;9.20;5.20;;;3.30;99.90;;;;;;4894775;29;20539;-65
2023/12/15 05:31:44;;;;;;;8.25;4.43;;;3.30;99.90;;;;;;4894509;29;20044;-65
2023/12/15 05:34:11;;;;;;;9.02;4.45;;;3.30;99.90;;;;;;4895426;29;20104;-65
2023/12/15 05:36:39;;;;;;;11.98;5.47;;;3.30;99.90;;;;;;4897381;29;20116;-65
2023/12/15 05:39:07;;;;;;;10.13;5.32;;;3.30;99.90;;;;;;4892983;29;20131;-65
2023/12/15 05:41:33;;;;;;;;;;;3.40;99.90;;;;;;4895695;29;20055;-65
2023/12/15 05:44:00;;;;;;;11.50;5.63;;;3.30;99.90;;;;;;4897553;29;20018;-65
2023/12/15 05:46:27;;;;;;;15.35;7.05;;;3.30;99.90;;;;;;4893594;29;20660;-65
2023/12/15 05:48:54;;;;;;;12.05;6.40;;;3.40;99.90;;;;;;4894924;29;20103;-65
2023/12/15 05:51:21;;;;;;;11.65;6.63;;;3.40;99.90;;;;;;4893938;29;20061;-65
2023/12/15 05:53:48;;;;;;;13.23;6.25;;;3.40;99.90;;;;;;4899450;29;20123;-64
2023/12/15 05:56:23;;;;;;;13.68;6.47;;;3.40;99.90;;;;;;4899446;29;20545;-65
2023/12/15 05:58:50;;;;;;;11.40;6.97;;;3.40;99.90;;;;;;4900551;29;20059;-65
2023/12/15 06:01:17;;;;;;;12.88;7.18;;;3.40;99.90;;;;;;4898769;29;20041;-65
2023/12/15 06:03:44;;;;;;;14.55;6.75;;;3.40;99.90;;;;;;4900240;29;20048;-65
2023/12/15 06:06:14;;;;;;;14.05;7.00;;;3.50;99.90;;;;;;4898825;29;20108;-65
2023/12/15 06:08:41;;;;;;;11.93;7.10;;;3.50;99.90;;;;;;4899316;29;20397;-66
2023/12/15 06:11:08;;;;;;;14.10;7.47;;;3.50;99.90;;;;;;4898401;29;20075;-66
2023/12/15 06:13:35;;;;;;;9.73;6.07;;;3.50;99.90;;;;;;4901153;29;20490;-65
2023/12/15 06:16:01;;;;;;;8.15;4.38;;;3.50;99.90;;;;;;4899090;29;20049;-65
2023/12/15 06:18:28;;;;;;;8.27;5.32;;;3.50;99.90;;;;;;4900081;29;20486;-65
2023/12/15 06:20:55;;;;;;;10.40;5.95;;;3.60;99.90;;;;;;4903844;29;20051;-65
2023/12/15 06:23:22;;;;;;;9.45;5.97;;;3.50;99.90;;;;;;4897589;29;20049;-65
2023/12/15 06:25:49;;;;;;;14.45;7.10;;;3.60;99.90;;;;;;4883102;29;20044;-65
2023/12/15 06:28:16;;;;;;;8.20;4.38;;;3.60;99.90;;;;;;4903832;29;20045;-65
2023/12/15 06:30:43;;;;;;;9.32;5.53;;;3.50;99.90;;;;;;4899619;29;20044;-65
2023/12/15 06:33:09;;;;;;;11.55;6.40;;;3.60;99.90;;;;;;4892727;29;20469;-65
2023/12/15 06:35:36;;;;;;;8.93;5.97;;;3.60;99.90;;;;;;4896573;29;20057;-65
2023/12/15 06:38:03;;;;;;;10.82;5.82;;;3.60;99.90;;;;;;4892360;29;20446;-65
2023/12/15 06:40:31;;;;;;;10.85;6.03;;;3.60;99.90;;;;;;4899145;29;20136;-65
2023/12/15 06:42:58;;;;;;;;;;;3.60;99.90;;;;;;4882909;29;20512;-65
2023/12/15 06:45:25;;;;;;;12.98;6.03;;;3.60;99.90;;;;;;4881100;29;20399;-65
2023/12/15 06:47:51;;;;;;;10.20;6.10;;;3.60;99.90;;;;;;4895134;29;20044;-65
2023/12/15 06:50:19;;;;;;;10.70;6.05;;;3.60;99.90;;;;;;4896641;29;20494;-65
2023/12/15 06:52:49;;;;;;;10.00;5.72;;;3.50;99.90;;;;;;4898412;29;20049;-65
2023/12/15 06:55:16;;;;;;;10.40;5.35;;;3.60;99.90;;;;;;4893849;29;20063;-65
2023/12/15 06:57:42;;;;;;;12.63;6.55;;;3.60;99.90;;;;;;4898601;29;20052;-65
2023/12/15 07:00:10;;;;;;;11.32;6.93;;;3.60;99.90;;;;;;4886520;29;20136;-65
2023/12/15 07:02:37;;;;;;;;;;;3.60;99.90;;;;;;4903414;29;20048;-65
2023/12/15 07:05:04;;;;;;;12.65;7.55;;;3.60;99.90;;;;;;4897231;29;19928;-65
2023/12/15 07:07:31;;;;;;;;;;;3.60;99.90;;;;;;4899428;29;20673;-65
2023/12/15 07:09:58;;;;;;;13.48;7.63;;;3.60;99.90;;;;;;4892243;29;19924;-65
2023/12/15 07:12:24;;;;;;;17.65;8.35;;;3.70;99.90;;;;;;4895048;29;20052;-65
2023/12/15 07:14:52;;;;;;;15.95;7.35;;;3.70;99.90;;;;;;4894549;29;20127;-65
2023/12/15 07:17:19;;;;;;;14.32;8.13;;;3.70;99.90;;;;;;4890423;29;20076;-65
2023/12/15 07:19:46;;;;;;;15.00;7.80;;;3.80;99.90;;;;;;4895883;29;20401;-65
2023/12/15 07:22:13;;;;;;;13.82;7.75;;;3.80;99.90;;;;;;4897110;29;20054;-65
2023/12/15 07:24:43;;;;;;;12.75;7.20;;;3.80;99.90;;;;;;4894109;29;20502;-65
2023/12/15 07:27:10;;;;;;;12.85;5.72;;;3.80;99.90;;;;;;4898610;29;20145;-65
2023/12/15 07:29:37;;;;;;;16.75;8.80;;;3.70;99.90;;;;;;4889662;29;20120;-65
2023/12/15 07:32:04;;;;;;;14.27;8.02;;;3.70;99.90;;;;;;4899109;29;20040;-65
2023/12/15 07:34:31;;;;;;;12.45;6.32;;;3.70;99.90;;;;;;4894667;29;20107;-65
2023/12/15 07:36:58;;;;;;;9.38;5.47;;;3.80;99.90;;;;;;4898647;29;20040;-65
2023/12/15 07:39:24;;;;;;;9.75;5.63;;;3.70;99.90;;;;;;4892645;29;20064;-65
2023/12/15 07:41:51;;;;;;;16.67;6.68;;;3.70;99.90;;;;;;4893859;29;20045;-65
2023/12/15 07:44:18;;;;;;;13.45;6.55;;;3.70;99.90;;;;;;4897302;29;20055;-65
2023/12/15 07:46:45;;;;;;;11.75;6.38;;;3.70;99.90;;;;;;4897253;29;20459;-65
2023/12/15 07:49:11;;;;;;;16.88;7.90;;;3.70;99.90;;;;;;4894073;29;20045;-65
2023/12/15 07:51:38;;;;;;;13.13;7.97;;;3.60;99.90;;;;;;4896180;29;20069;-65
2023/12/15 07:54:05;;;;;;;14.98;7.18;;;3.60;99.90;;;;;;4896969;29;20047;-65
2023/12/15 07:56:33;;;;;;;15.45;8.10;;;3.60;99.90;;;;;;4897720;29;20040;-65
2023/12/15 07:59:00;;;;;;;14.52;7.68;;;3.60;99.90;;;;;;4892869;29;20055;-65
2023/12/15 08:01:26;;;;;;;12.88;6.28;;;3.60;99.90;;;;;;4895145;29;20143;-65
2023/12/15 08:03:54;;;;;;;14.68;7.00;;;3.60;99.90;;;;;;4897284;29;20063;-65
2023/12/15 08:06:20;;;;;;;;;;;3.60;99.90;;;;;;4897684;29;20047;-65
2023/12/15 08:08:48;;;;;;;21.00;9.40;;;3.70;99.90;;;;;;4891626;29;19923;-65
2023/12/15 08:11:15;;;;;;;;;;;3.70;99.90;;;;;;4898026;29;20080;-65
2023/12/15 08:13:42;;;;;;;23.10;9.88;;;3.70;99.90;;;;;;4896759;29;19937;-65
2023/12/15 08:16:10;;;;;;;18.10;9.25;;;3.70;99.90;;;;;;4896705;29;20064;-65
2023/12/15 08:18:41;;;;;;;18.65;9.70;;;3.70;99.90;;;;;;4890740;29;20131;-65
2023/12/15 08:21:10;;;;;;;15.73;7.97;;;3.70;99.90;;;;;;4893618;29;20060;-65
2023/12/15 08:23:37;;;;;;;13.80;7.72;;;3.70;99.90;;;;;;4895088;29;20048;-65
2023/12/15 08:26:04;;;;;;;22.25;9.18;;;3.70;99.90;;;;;;4894319;29;20397;-65
2023/12/15 08:28:31;;;;;;;18.58;8.85;;;3.70;99.90;;;;;;4894332;29;20045;-65
2023/12/15 08:30:58;;;;;;;14.85;7.85;;;3.60;99.90;;;;;;4896251;29;20051;-65
2023/12/15 08:33:27;;;;;;;20.73;9.32;;;3.60;99.90;;;;;;4896776;29;20044;-65
2023/12/15 08:35:54;;;;;;;20.13;9.95;;;3.60;99.90;;;;;;4886461;29;20041;-65
2023/12/15 08:38:21;;;;;;;18.75;9.30;;;3.70;99.90;;;;;;4897025;29;20525;-65
2023/12/15 08:40:48;;;;;;;19.95;9.77;;;3.70;99.90;;;;;;4904164;29;20049;-65
2023/12/15 08:43:15;;;;;;;19.05;9.38;;;3.70;99.90;;;;;;4894086;29;20494;-65
2023/12/15 08:45:41;;;;;;;19.92;9.05;;;3.80;99.90;;;;;;4889477;29;20052;-65
2023/12/15 08:48:08;;;;;;;11.60;6.18;;;3.70;99.90;;;;;;4894893;29;20048;-65
2023/12/15 08:50:35;;;;;;;;;;;3.70;99.90;;;;;;4896090;29;20391;-65
2023/12/15 08:53:02;;;;;;;19.85;8.40;;;3.80;99.90;;;;;;4895536;29;19970;-65
2023/12/15 08:55:29;;;;;;;23.60;9.00;;;3.80;99.90;;;;;;4896300;29;20041;-65
2023/12/15 08:57:56;;;;;;;16.92;8.48;;;3.90;99.90;;;;;;4891477;29;20051;-65
2023/12/15 09:00:23;;;;;;;16.08;8.18;;;3.90;99.90;;;;;;4895307;29;20048;-65
2023/12/15 09:02:52;;;;;;;21.75;9.15;;;3.90;99.90;;;;;;4896450;29;20490;-65
2023/12/15 09:05:23;;;;;;;21.92;9.18;;;4.00;99.90;;;;;;4895786;29;20085;-65
2023/12/15 09:08:10;;;;;;;14.48;6.93;;;4.00;99.90;;;;;;4896669;29;20051;-65
2023/12/15 09:10:43;;;;;;;16.38;8.23;;;3.90;99.90;;;;;;4888079;29;20084;-65
2023/12/15 09:13:11;;;;;;;16.25;8.90;;;4.00;99.90;;;;;;4895101;29;20049;-65
2023/12/15 09:15:38;;;;;;;22.45;9.55;;;4.00;99.90;;;;;;4895819;29;20045;-65
2023/12/15 09:18:05;;;;;;;15.20;7.45;;;4.00;99.90;;;;;;4896118;29;20056;-65
2023/12/15 09:20:36;;;;;;;21.17;9.85;;;4.00;99.90;;;;;;4896189;29;20104;-65
2023/12/15 09:23:07;;;;;;;16.52;9.10;;;4.00;99.90;;;;;;4892250;29;20120;-65
2023/12/15 09:25:34;;;;;;;14.63;7.60;;;4.00;99.90;;;;;;4893471;29;20081;-65
2023/12/15 09:28:03;;;;;;;16.55;9.18;;;4.00;99.90;;;;;;4895420;29;20375;-65
2023/12/15 09:30:30;;;;;;;20.70;8.90;;;4.10;99.90;;;;;;4883164;29;20044;-65
2023/12/15 09:32:57;;;;;;;16.35;8.15;;;4.10;99.90;;;;;;4888212;29;20044;-65
2023/12/15 09:35:24;;;;;;;18.77;8.23;;;4.00;99.90;;;;;;4894635;29;20059;-65
2023/12/15 09:37:51;;;;;;;15.50;8.00;;;4.00;99.90;;;;;;4894931;29;20410;-65
2023/12/15 09:40:23;;;;;;;19.15;8.80;;;4.00;99.90;;;;;;4890737;29;20044;-65
2023/12/15 09:42:50;;;;;;;20.05;8.60;;;3.90;99.90;;;;;;4896034;29;20057;-65
2023/12/15 09:45:17;;;;;;;15.40;8.88;;;4.00;99.90;;;;;;4895571;29;20044;-65
2023/12/15 09:47:45;;;;;;;;;;;4.00;99.90;;;;;;4888732;29;20526;-65
2023/12/15 09:50:15;;;;;;;16.77;8.23;;;4.10;99.90;;;;;;4896096;29;19927;-65
2023/12/15 09:52:42;;;;;;;16.05;8.25;;;4.10;99.90;;;;;;4895487;29;20060;-65
2023/12/15 09:55:09;;;;;;;19.52;10.07;;;4.10;99.90;;;;;;4896098;29;20505;-65
2023/12/15 09:57:37;;;;;;;;;;;4.10;99.90;;;;;;4890374;29;20406;-65
2023/12/15 10:00:06;;;;;;;16.75;8.57;;;4.10;99.90;;;;;;4895981;29;19955;-65
2023/12/15 10:02:37;;;;;;;20.15;9.23;;;4.10;99.90;;;;;;4893375;29;20049;-65
2023/12/15 10:05:06;;;;;;;17.45;9.38;;;4.10;99.90;;;;;;4895093;29;20086;-65
2023/12/15 10:07:33;;;;;;;17.38;8.70;;;4.20;99.90;;;;;;4895485;29;20048;-65
2023/12/15 10:10:00;;;;;;;16.20;8.15;;;4.20;99.90;;;;;;4888654;29;20042;-65
2023/12/15 10:12:30;;;;;;;15.63;8.02;;;4.20;99.90;;;;;;4888417;29;20045;-65
2023/12/15 10:14:57;;;;;;;18.38;8.65;;;4.20;99.90;;;;;;4895196;29;20040;-65
2023/12/15 10:17:24;;;;;;;16.23;8.77;;;4.20;99.90;;;;;;4895755;29;20055;-65
2023/12/15 10:20:03;;;;;;;;;;;4.20;99.90;;;;;;4891227;29;20458;-65
2023/12/15 10:22:30;;;;;;;30.67;15.73;;;4.10;99.90;;;;;;4895743;29;19963;-65
2023/12/15 10:24:57;;;;;;;14.48;8.05;;;4.00;99.90;;;;;;4894660;29;20048;-65
2023/12/15 10:27:24;;;;;;;15.07;7.93;;;4.00;99.90;;;;;;4894893;29;20053;-65
2023/12/15 10:29:51;;;;;;;15.55;8.55;;;4.00;99.90;;;;;;4887267;29;20506;-65
2023/12/15 10:32:18;;;;;;;18.08;9.23;;;3.90;99.90;;;;;;4895747;29;20045;-65
2023/12/15 10:34:46;;;;;;;18.58;9.48;;;4.00;99.90;;;;;;4894668;29;20132;-65
2023/12/15 10:37:13;;;;;;;14.88;8.55;;;4.00;99.90;;;;;;4892630;29;20045;-65
2023/12/15 10:39:40;;;;;;;16.23;8.65;;;4.00;99.90;;;;;;4888131;29;20077;-65
2023/12/15 10:42:07;;;;;;;19.40;10.07;;;4.00;99.90;;;;;;4898843;29;20046;-65
2023/12/15 10:44:35;;;;;;;20.80;9.57;;;4.00;99.90;;;;;;4898396;29;20116;-65
2023/12/15 10:47:04;;;;;;;15.20;7.25;;;4.10;99.90;;;;;;4894880;29;20048;-65
2023/12/15 10:49:32;;;;;;;14.48;7.25;;;4.00;99.90;;;;;;4894624;29;20402;-65
2023/12/15 10:52:17;;;;;;;18.00;8.85;;;4.00;99.90;;;;;;4898710;29;20041;-65
2023/12/15 10:54:45;;;;;;;13.77;7.90;;;4.10;99.90;;;;;;4898269;29;20048;-65
2023/12/15 10:57:13;;;;;;;15.77;7.93;;;4.20;99.90;;;;;;4894703;29;20502;-65
2023/12/15 10:59:40;;;;;;;13.02;7.07;;;4.30;99.90;;;;;;4898532;29;20131;-65
2023/12/15 11:02:09;;;;;;;14.50;7.18;;;4.30;99.90;;;;;;4898412;29;20045;-65
2023/12/15 11:04:36;;;;;;;16.40;9.27;;;4.30;99.90;;;;;;4898569;29;20097;-65
2023/12/15 11:07:03;;;;;;;16.60;7.80;;;4.20;99.90;;;;;;4893988;29;20119;-65
2023/12/15 11:09:33;;;;;;;12.60;7.35;;;4.30;99.90;;;;;;4906389;29;20468;-65
2023/12/15 11:12:29;;;;;;;13.70;6.03;;;4.30;99.90;;;;;;4898555;29;20043;-64
2023/12/15 11:15:08;;;;;;;12.30;6.32;;;4.30;99.90;;;;;;4887532;29;20458;-65
2023/12/15 11:17:45;;;;;;;10.05;5.53;;;4.40;99.90;;;;;;4898377;29;20384;-64
2023/12/15 11:20:18;;;;;;;11.88;6.72;;;4.30;99.90;;;;;;4892315;29;20478;-65
2023/12/15 11:22:50;;;;;;;10.98;5.95;;;4.40;99.90;;;;;;4892229;29;20043;-64
2023/12/15 11:25:18;;;;;;;14.30;7.25;;;4.40;99.90;;;;;;4893790;29;20334;-64
2023/12/15 11:28:03;;;;;;;14.93;8.30;;;4.40;99.90;;;;;;4897953;29;20080;-64
2023/12/15 11:30:40;;;;;;;14.32;7.90;;;4.40;99.90;;;;;;4898094;29;20136;-65
2023/12/15 11:33:26;;;;;;;11.55;6.97;;;4.60;99.90;;;;;;4887365;29;20498;-64
2023/12/15 11:36:00;;;;;;;11.50;6.90;;;4.70;99.90;;;;;;4896606;29;20040;-65
2023/12/15 11:38:27;;;;;;;10.48;6.15;;;4.70;99.90;;;;;;4896353;29;20062;-64
2023/12/15 11:40:55;;;;;;;11.68;5.97;;;4.80;99.90;;;;;;4896724;29;20047;-64
2023/12/15 11:43:23;;;;;;;;;;;4.80;99.90;;;;;;4898179;29;20051;-65
2023/12/15 11:45:52;;;;;;;9.13;5.28;;;4.80;99.90;;;;;;4896518;29;19979;-65
2023/12/15 11:48:21;;;;;;;9.30;5.30;;;4.80;99.90;;;;;;4894905;29;20455;-64
2023/12/15 11:50:48;;;;;;;9.25;5.55;;;4.80;99.90;;;;;;4897031;29;20045;-65
2023/12/15 11:53:17;;;;;;;8.90;5.43;;;4.80;99.90;;;;;;4879625;29;20063;-64
2023/12/15 11:55:46;;;;;;;11.98;6.43;;;4.80;99.90;;;;;;4892271;29;20060;-64
2023/12/15 11:58:18;;;;;;;21.48;8.70;;;4.90;99.90;;;;;;4894233;29;20049;-65
2023/12/15 12:00:45;;;;;;;17.23;8.48;;;4.90;99.90;;;;;;4897527;29;20045;-65
2023/12/15 12:03:13;;;;;;;;;;;5.00;99.90;;;;;;4897596;29;20048;-65
2023/12/15 12:05:41;;;;;;;14.60;7.68;;;5.00;99.90;;;;;;4897342;29;19930;-65
2023/12/15 12:08:10;;;;;;;12.98;6.70;;;4.90;99.90;;;;;;4889490;29;20079;-65
2023/12/15 12:10:42;;;;;;;12.63;6.20;;;4.90;99.90;;;;;;4894253;29;20298;-64
2023/12/15 12:13:10;;;;;;;22.30;11.45;;;4.90;99.90;;;;;;4897488;29;20055;-65
2023/12/15 12:15:51;;;;;;;23.90;12.18;;;4.90;99.90;;;;;;4896859;29;20077;-64
2023/12/15 12:18:23;;;;;;;34.55;14.80;;;5.00;99.90;;;;;;4891295;29;20056;-65
2023/12/15 12:20:55;;;;;;;30.95;15.57;;;5.00;99.90;;;;;;4893337;29;20108;-64
2023/12/15 12:23:29;;;;;;;23.55;11.23;;;4.90;99.90;;;;;;4896946;29;20071;-64
2023/12/15 12:26:08;;;;;;;21.58;11.50;;;5.00;99.90;;;;;;4889403;29;20048;-64
2023/12/15 12:28:40;;;;;;;15.35;8.35;;;5.00;99.90;;;;;;4893461;29;20585;-64
2023/12/15 12:31:07;;;;;;;20.20;9.73;;;4.90;99.90;;;;;;4897215;29;20072;-65
2023/12/15 12:33:34;;;;;;;;;;;4.90;99.90;;;;;;4893191;29;20091;-65
2023/12/15 12:36:01;;;;;;;15.70;8.30;;;4.70;99.90;;;;;;4896717;29;20089;-64
2023/12/15 12:38:28;;;;;;;15.73;9.13;;;4.70;99.90;;;;;;4896140;29;20512;-65
2023/12/15 12:40:55;;;;;;;13.57;8.68;;;4.80;99.90;;;;;;4889404;29;20068;-65
2023/12/15 12:43:22;;;;;;;13.60;7.60;;;4.80;99.90;;;;;;4896688;29;20044;-65
2023/12/15 12:45:49;;;;;;;;;;;4.80;99.90;;;;;;4892407;29;20041;-65
2023/12/15 12:48:16;;;;;;;19.45;8.50;;;4.80;99.90;;;;;;4892405;29;19923;-65
2023/12/15 12:50:43;;;;;;;17.65;9.55;;;4.80;99.90;;;;;;4896249;29;20040;-65
2023/12/15 12:53:11;;;;;;;14.48;7.68;;;4.80;99.90;;;;;;4896177;29;20058;-65
2023/12/15 12:55:38;;;;;;;12.05;7.05;;;4.70;99.90;;;;;;4889340;29;20396;-65
2023/12/15 12:58:05;;;;;;;14.55;8.13;;;4.70;99.90;;;;;;4896184;29;20104;-65
2023/12/15 13:00:31;;;;;;;16.35;9.02;;;4.80;99.90;;;;;;4896343;29;20059;-65